Time;durP1;ratioP1;P1;durP2;ratioP2;P2;SDS_P1;SDS_P2;PMS_P1;PMS_P2;Temp;Humidity;BMP_temperature;BMP_pressure;BME280_temperature;BME280_humidity;BME280_pressure;Samples;Min_cycle;Max_cycle;Signal;HPM_P1;HPM_P2
2021/12/04 00:01:08;;;;;;;23.40;22.10;;;4.90;72.50;;;;;;5023790;28;20231;-72
2021/12/04 00:03:35;;;;;;;23.65;22.35;;;5.00;69.80;;;;;;5017805;28;20308;-72
2021/12/04 00:06:06;;;;;;;22.95;21.67;;;5.00;69.10;;;;;;5028495;28;20208;-72
2021/12/04 00:08:35;;;;;;;22.83;21.63;;;5.00;69.50;;;;;;5025835;28;20550;-73
2021/12/04 00:11:02;;;;;;;23.63;22.13;;;4.90;70.80;;;;;;5023970;28;20201;-72
2021/12/04 00:13:29;;;;;;;22.67;21.48;;;5.00;70.60;;;;;;5025521;28;20583;-74
2021/12/04 00:15:56;;;;;;;22.50;21.35;;;5.00;71.30;;;;;;5028693;28;20670;-73
2021/12/04 00:18:24;;;;;;;22.10;20.65;;;5.00;74.00;;;;;;5026026;28;20201;-73
2021/12/04 00:20:51;;;;;;;22.77;21.52;;;5.00;73.60;;;;;;5026670;28;20212;-73
2021/12/04 00:23:18;;;;;;;22.08;20.83;;;5.00;73.40;;;;;;5026293;28;20218;-74
2021/12/04 00:25:45;;;;;;;23.15;21.95;;;5.00;75.70;;;;;;5023941;28;20200;-73
2021/12/04 00:28:12;;;;;;;22.90;21.60;;;5.10;72.20;;;;;;5017031;28;20643;-74
2021/12/04 00:30:39;;;;;;;23.20;22.00;;;5.00;74.80;;;;;;5019415;28;20186;-74
2021/12/04 00:33:11;;;;;;;23.65;22.23;;;5.00;72.80;;;;;;5025154;28;20227;-74
2021/12/04 00:35:45;;;;;;;23.52;22.23;;;5.10;72.80;;;;;;5026453;28;20200;-74
2021/12/04 00:49:11;;;;;;;22.10;21.00;;;5.00;71.30;;;;;;5025152;28;20255;-73
2021/12/04 00:51:43;;;;;;;23.13;21.83;;;5.00;72.20;;;;;;5028548;28;20209;-74
2021/12/04 00:54:12;;;;;;;22.83;21.63;;;5.20;71.60;;;;;;5024850;28;20225;-75
2021/12/04 00:56:40;;;;;;;23.40;22.00;;;5.20;71.80;;;;;;5027301;28;20302;-73
2021/12/04 00:59:07;;;;;;;22.88;21.50;;;5.30;71.50;;;;;;5027752;28;20208;-74
2021/12/04 01:01:37;;;;;;;22.90;21.67;;;5.20;72.30;;;;;;5025609;28;20198;-73
2021/12/04 01:04:04;;;;;;;24.25;22.70;;;5.20;72.90;;;;;;5026476;28;20300;-73
2021/12/04 01:06:31;;;;;;;23.08;21.77;;;5.20;71.80;;;;;;5014576;28;20203;-74
2021/12/04 01:08:59;;;;;;;22.55;21.35;;;5.20;71.70;;;;;;5027051;28;20197;-74
2021/12/04 01:11:26;;;;;;;23.13;21.83;;;5.20;71.90;;;;;;5026281;28;20578;-73
2021/12/04 01:13:53;;;;;;;22.60;21.30;;;5.30;71.60;;;;;;5023370;28;20209;-72
2021/12/04 01:16:20;;;;;;;22.38;21.05;;;5.30;71.50;;;;;;5026906;28;20197;-71
2021/12/04 01:18:47;;;;;;;22.73;21.42;;;5.30;71.80;;;;;;5023967;28;20284;-71
2021/12/04 01:21:14;;;;;;;23.15;21.80;;;5.30;71.80;;;;;;5027785;28;20217;-71
2021/12/04 01:23:41;;;;;;;22.75;21.45;;;5.30;73.00;;;;;;5015800;28;20219;-73
2021/12/04 01:26:09;;;;;;;23.38;21.90;;;5.30;73.60;;;;;;5025134;28;20199;-71
2021/12/04 01:28:36;;;;;;;22.95;21.58;;;5.30;74.00;;;;;;5027031;28;20233;-71
2021/12/04 01:31:03;;;;;;;22.98;21.67;;;5.40;75.00;;;;;;5026886;28;20302;-72
2021/12/04 01:33:30;;;;;;;22.65;21.45;;;5.40;76.10;;;;;;5022872;28;20308;-70
2021/12/04 01:35:57;;;;;;;22.80;21.45;;;5.40;76.40;;;;;;5024793;28;20229;-70
2021/12/04 01:38:24;;;;;;;22.48;21.27;;;5.40;77.10;;;;;;5028795;28;20205;-70
2021/12/04 01:40:51;;;;;;;21.40;20.30;;;5.30;77.70;;;;;;5028946;28;20312;-69
2021/12/04 01:43:19;;;;;;;21.00;19.80;;;5.40;79.10;;;;;;5031027;28;20604;-70
2021/12/04 01:45:46;;;;;;;21.65;20.55;;;5.30;80.90;;;;;;5023455;28;20193;-70
2021/12/04 01:48:13;;;;;;;21.30;19.88;;;5.20;83.10;;;;;;5025777;28;20193;-70
2021/12/04 01:50:40;;;;;;;19.88;18.77;;;5.20;84.10;;;;;;5027229;28;20211;-70
2021/12/04 01:53:07;;;;;;;19.15;18.25;;;5.20;85.50;;;;;;5031769;28;20213;-69
2021/12/04 01:55:36;;;;;;;20.45;19.00;;;5.10;86.10;;;;;;5024340;28;20214;-69
2021/12/04 01:58:05;;;;;;;20.25;18.90;;;5.10;87.20;;;;;;5026450;28;20197;-69
2021/12/04 02:00:36;;;;;;;19.20;18.10;;;5.00;87.60;;;;;;5029929;28;20271;-70
2021/12/04 02:03:04;;;;;;;20.00;18.85;;;5.10;86.80;;;;;;5027213;28;20308;-70
2021/12/04 02:05:31;;;;;;;18.30;17.30;;;5.10;86.70;;;;;;5027568;28;20566;-70
2021/12/04 02:07:58;;;;;;;19.20;18.10;;;4.90;88.10;;;;;;5032286;28;20193;-70
2021/12/04 02:10:25;;;;;;;19.83;18.73;;;4.90;88.40;;;;;;5029125;28;20193;-70
2021/12/04 02:12:52;;;;;;;18.80;17.70;;;4.80;88.00;;;;;;5028398;28;20209;-70
2021/12/04 02:15:20;;;;;;;19.45;18.23;;;4.70;88.50;;;;;;5026430;28;20223;-70
2021/12/04 02:17:49;;;;;;;19.75;18.50;;;4.80;88.40;;;;;;5029809;28;20212;-72
2021/12/04 02:20:19;;;;;;;19.42;18.05;;;4.70;89.40;;;;;;5030042;28;20303;-71
2021/12/04 02:22:47;;;;;;;19.73;18.20;;;4.70;89.70;;;;;;5023566;28;20304;-72
2021/12/04 02:25:15;;;;;;;19.80;18.45;;;4.70;89.90;;;;;;5027867;28;20201;-72
2021/12/04 02:27:42;;;;;;;18.80;17.70;;;4.70;91.80;;;;;;5024696;28;20296;-72
2021/12/04 02:30:15;;;;;;;18.50;17.50;;;4.70;93.10;;;;;;5020340;28;20204;-71
2021/12/04 02:32:42;;;;;;;19.17;17.98;;;4.70;92.20;;;;;;5024181;28;20575;-71
2021/12/04 02:35:10;;;;;;;19.67;18.33;;;4.60;90.60;;;;;;5025740;28;20559;-72
2021/12/04 02:37:40;;;;;;;19.40;18.17;;;4.60;91.10;;;;;;5023954;28;20201;-72
2021/12/04 02:40:10;;;;;;;18.20;17.20;;;4.70;90.60;;;;;;5023804;28;20225;-71
2021/12/04 02:42:37;;;;;;;19.85;18.70;;;4.60;90.30;;;;;;5024337;28;20548;-72
2021/12/04 02:45:08;;;;;;;20.10;19.00;;;4.70;90.00;;;;;;5025055;28;20205;-71
2021/12/04 02:47:36;;;;;;;19.58;18.48;;;4.70;89.60;;;;;;5030468;28;20288;-72
2021/12/04 02:50:05;;;;;;;19.25;18.23;;;4.60;89.60;;;;;;5028146;28;20186;-72
2021/12/04 02:52:32;;;;;;;20.27;18.98;;;4.60;89.50;;;;;;5028957;28;20681;-72
2021/12/04 02:55:01;;;;;;;19.15;18.00;;;4.60;88.70;;;;;;5027290;28;20288;-70
2021/12/04 02:57:28;;;;;;;783.95;108.03;;;4.50;91.70;;;;;;5029739;28;20637;-70
2021/12/04 02:59:56;;;;;;;18.55;17.55;;;4.40;90.50;;;;;;5027752;28;20224;-70
2021/12/04 03:02:24;;;;;;;20.13;18.80;;;4.40;92.00;;;;;;5030940;28;20209;-70
2021/12/04 03:04:55;;;;;;;20.48;19.20;;;4.40;94.40;;;;;;5028737;28;20212;-70
2021/12/04 03:07:23;;;;;;;19.65;18.45;;;4.50;92.10;;;;;;5027215;28;20193;-70
2021/12/04 03:09:50;;;;;;;21.35;19.88;;;4.50;90.30;;;;;;5028274;28;20193;-70
2021/12/04 03:12:22;;;;;;;20.15;18.95;;;4.50;90.70;;;;;;5022711;28;20664;-70
2021/12/04 03:14:50;;;;;;;21.02;19.75;;;4.50;90.10;;;;;;5026742;28;20210;-69
2021/12/04 03:17:19;;;;;;;20.15;18.95;;;4.50;89.30;;;;;;5024077;28;20197;-70
2021/12/04 03:19:49;;;;;;;37.25;20.63;;;4.50;89.40;;;;;;5029808;28;20205;-70
2021/12/04 03:22:17;;;;;;;19.70;18.45;;;4.40;90.10;;;;;;5030772;28;20274;-70
2021/12/04 03:24:44;;;;;;;19.65;18.58;;;4.40;91.00;;;;;;5023194;28;20220;-72
2021/12/04 03:27:13;;;;;;;20.27;19.02;;;4.40;90.90;;;;;;5028538;28;20193;-71
2021/12/04 03:29:45;;;;;;;56.75;23.10;;;4.40;91.20;;;;;;5029071;28;20259;-72
2021/12/04 03:32:45;;;;;;;190.15;32.95;;;4.40;91.30;;;;;;5027477;28;20694;-71
2021/12/04 03:35:22;;;;;;;19.30;18.20;;;4.50;91.40;;;;;;5025270;28;20209;-72
2021/12/04 03:40:39;;;;;;;22.15;19.95;;;4.50;91.30;;;;;;5025169;28;20568;-73
2021/12/04 03:43:09;;;;;;;20.65;19.55;;;4.50;91.10;;;;;;5025097;28;20221;-72
2021/12/04 03:45:40;;;;;;;20.17;18.98;;;4.40;91.10;;;;;;5018675;28;20199;-71
2021/12/04 03:48:12;;;;;;;19.63;18.48;;;4.50;91.00;;;;;;5029017;28;20201;-71
2021/12/04 03:50:39;;;;;;;20.85;19.55;;;4.50;90.60;;;;;;5028064;28;20194;-72
2021/12/04 03:53:06;;;;;;;53.20;22.20;;;4.50;90.40;;;;;;5028278;28;20808;-73
2021/12/04 03:55:34;;;;;;;18.98;17.80;;;4.40;91.10;;;;;;5029984;28;20211;-71
2021/12/04 03:58:02;;;;;;;230.07;38.83;;;4.50;91.40;;;;;;5027355;28;20248;-74
2021/12/04 04:00:29;;;;;;;34.78;20.35;;;4.40;92.00;;;;;;5029464;28;20330;-71
2021/12/04 04:02:58;;;;;;;20.40;19.05;;;4.50;91.60;;;;;;5029053;28;20213;-73
2021/12/04 04:05:25;;;;;;;22.17;19.65;;;4.70;91.00;;;;;;5028155;28;20587;-71
2021/12/04 04:07:52;;;;;;;19.30;18.20;;;4.60;90.60;;;;;;5029144;28;20204;-72
2021/12/04 04:10:20;;;;;;;20.67;19.15;;;4.60;92.00;;;;;;5026904;28;20197;-72
2021/12/04 04:12:47;;;;;;;19.95;18.75;;;4.50;91.60;;;;;;5022460;28;20204;-72
2021/12/04 04:15:14;;;;;;;19.55;18.35;;;4.50;91.70;;;;;;5028689;28;20405;-71
2021/12/04 04:17:43;;;;;;;19.40;18.30;;;4.50;91.90;;;;;;5023469;28;20212;-71
2021/12/04 04:20:14;;;;;;;169.68;36.03;;;4.40;92.20;;;;;;5026838;28;20209;-72
2021/12/04 04:22:42;;;;;;;20.42;19.13;;;4.50;92.50;;;;;;5023746;28;20220;-74
2021/12/04 04:25:10;;;;;;;20.02;18.83;;;4.50;92.50;;;;;;5027017;28;20193;-72
2021/12/04 04:27:36;;;;;;;1999.90;641.28;;;4.60;92.20;;;;;;5027719;28;20190;-72
2021/12/04 04:30:06;;;;;;;41.55;19.92;;;4.60;96.80;;;;;;5025817;28;20197;-71
2021/12/04 04:32:33;;;;;;;18.80;17.60;;;4.60;97.20;;;;;;5024648;28;20220;-72
2021/12/04 04:35:08;;;;;;;19.20;18.00;;;4.60;95.60;;;;;;5024405;28;20555;-72
2021/12/04 04:37:42;;;;;;;18.40;17.30;;;4.80;94.70;;;;;;5021597;28;20649;-71
2021/12/04 04:59:54;;;;;;;20.48;19.17;;;4.70;94.00;;;;;;5028439;28;20205;-72
2021/12/04 05:02:38;;;;;;;22.33;20.92;;;4.90;93.20;;;;;;5017342;28;20228;-72
2021/12/04 05:11:08;;;;;;;21.90;20.60;;;4.80;93.10;;;;;;5021299;28;20240;-72
2021/12/04 05:13:35;;;;;;;21.65;20.35;;;4.70;93.30;;;;;;5013080;28;20210;-72
2021/12/04 05:16:11;;;;;;;21.55;20.17;;;4.70;93.20;;;;;;5017959;28;20248;-73
2021/12/04 05:18:41;;;;;;;21.63;20.33;;;4.70;93.40;;;;;;5027982;28;20747;-72
2021/12/04 05:21:11;;;;;;;20.90;19.60;;;4.80;93.50;;;;;;5031172;28;20209;-73
2021/12/04 05:23:44;;;;;;;37.40;20.45;;;4.80;94.30;;;;;;5030728;28;20209;-73
2021/12/04 05:26:16;;;;;;;20.58;19.30;;;4.90;94.00;;;;;;5013186;28;20563;-70
2021/12/04 05:28:43;;;;;;;20.58;19.05;;;5.00;94.60;;;;;;5028724;28;20199;-72
2021/12/04 05:31:11;;;;;;;19.95;18.63;;;5.00;94.00;;;;;;5031735;28;20200;-72
2021/12/04 05:33:39;;;;;;;20.08;18.77;;;5.00;93.70;;;;;;5031625;28;20751;-71
2021/12/04 05:36:06;;;;;;;18.60;17.40;;;5.00;95.40;;;;;;5031206;28;20197;-71
2021/12/04 05:38:34;;;;;;;18.40;17.20;;;5.10;95.50;;;;;;5023576;28;20197;-71
2021/12/04 05:41:01;;;;;;;18.92;17.85;;;5.10;94.40;;;;;;5020032;28;20214;-72
2021/12/04 05:43:29;;;;;;;17.25;16.27;;;5.20;94.50;;;;;;5014243;28;20698;-72
2021/12/04 05:46:03;;;;;;;17.23;16.35;;;5.20;93.80;;;;;;5030506;28;20189;-72
2021/12/04 05:48:40;;;;;;;19.63;18.35;;;5.30;93.40;;;;;;5032308;28;20203;-71
2021/12/04 05:51:31;;;;;;;17.48;16.60;;;5.40;93.00;;;;;;5027309;28;20208;-72
2021/12/04 05:54:02;;;;;;;17.75;16.85;;;5.30;93.20;;;;;;5017264;28;20484;-75
2021/12/04 05:56:31;;;;;;;17.98;17.08;;;5.40;93.10;;;;;;5021170;28;20201;-72
2021/12/04 05:59:00;;;;;;;17.50;16.60;;;5.40;93.00;;;;;;5019755;28;20587;-73
2021/12/04 06:01:28;;;;;;;1315.70;164.95;;;5.40;93.40;;;;;;5014721;28;20695;-72
2021/12/04 06:03:55;;;;;;;17.02;16.23;;;5.40;93.30;;;;;;5016203;28;20209;-74
2021/12/04 06:06:22;;;;;;;17.40;16.50;;;5.40;94.00;;;;;;5016638;28;20196;-74
2021/12/04 06:08:49;;;;;;;17.25;16.23;;;5.50;94.10;;;;;;5030174;28;20205;-75
2021/12/04 06:11:16;;;;;;;18.48;17.58;;;5.50;93.70;;;;;;5028706;28;20630;-74
2021/12/04 06:13:43;;;;;;;17.55;16.55;;;5.50;93.50;;;;;;5023541;28;20219;-74
2021/12/04 06:16:11;;;;;;;21.77;20.13;;;5.60;93.30;;;;;;5031336;28;20663;-75
2021/12/04 06:18:38;;;;;;;84.03;25.98;;;5.70;93.10;;;;;;5032055;28;20208;-73
2021/12/04 06:23:50;;;;;;;19.83;18.73;;;5.50;93.90;;;;;;5031717;28;20259;-72
2021/12/04 06:26:17;;;;;;;20.65;19.38;;;5.50;94.80;;;;;;5035031;28;20198;-72
2021/12/04 06:28:44;;;;;;;20.10;18.80;;;5.60;94.30;;;;;;5032864;28;20728;-72
2021/12/04 06:31:12;;;;;;;18.13;17.05;;;5.60;94.50;;;;;;5035625;28;20232;-72
2021/12/04 06:33:40;;;;;;;137.95;26.65;;;5.70;95.50;;;;;;5033048;28;20220;-75
2021/12/04 06:36:08;;;;;;;15.52;14.73;;;5.70;95.40;;;;;;5026503;28;20239;-74
2021/12/04 06:38:36;;;;;;;15.55;14.65;;;5.70;95.70;;;;;;5032425;28;20304;-76
2021/12/04 06:41:04;;;;;;;15.30;14.60;;;5.80;95.00;;;;;;5034653;28;20227;-75
2021/12/04 06:43:31;;;;;;;16.90;15.95;;;5.90;94.90;;;;;;5027240;28;20293;-72
2021/12/04 06:46:00;;;;;;;15.00;14.30;;;6.00;94.00;;;;;;5026469;28;20237;-76
2021/12/04 06:48:38;;;;;;;14.60;13.90;;;6.10;93.80;;;;;;5027877;28;20197;-73
2021/12/04 06:51:10;;;;;;;14.30;13.60;;;6.10;93.60;;;;;;5028397;28;20189;-74
2021/12/04 06:53:42;;;;;;;14.93;13.75;;;6.20;93.40;;;;;;5032616;28;20635;-74
2021/12/04 06:56:11;;;;;;;15.68;14.35;;;6.30;93.30;;;;;;5032320;28;20212;-73
2021/12/04 06:58:39;;;;;;;13.95;13.35;;;6.30;93.40;;;;;;5019606;28;20201;-73
2021/12/04 07:01:08;;;;;;;14.10;13.50;;;6.20;94.00;;;;;;5018957;28;20213;-73
2021/12/04 07:03:36;;;;;;;14.35;13.70;;;6.20;93.90;;;;;;5023873;28;20209;-75
2021/12/04 07:06:03;;;;;;;14.20;13.50;;;6.20;94.20;;;;;;5033999;28;20212;-74
2021/12/04 07:08:30;;;;;;;15.27;14.55;;;6.20;94.80;;;;;;5029385;28;20194;-73
2021/12/04 07:10:57;;;;;;;14.02;13.02;;;6.30;94.50;;;;;;5021725;28;20366;-73
2021/12/04 07:13:24;;;;;;;14.90;14.20;;;6.20;94.20;;;;;;5016470;28;20304;-73
2021/12/04 07:16:00;;;;;;;14.38;13.77;;;6.30;94.10;;;;;;5032741;28;20199;-73
2021/12/04 07:18:27;;;;;;;13.77;13.18;;;6.30;94.20;;;;;;5026422;28;20279;-72
2021/12/04 07:20:55;;;;;;;130.70;24.30;;;6.40;93.80;;;;;;5015506;28;20194;-72
2021/12/04 07:23:22;;;;;;;456.23;58.38;;;6.40;94.10;;;;;;5016247;28;20245;-72
2021/12/04 07:25:49;;;;;;;14.55;13.70;;;6.40;94.60;;;;;;5018973;28;20202;-72
2021/12/04 07:28:16;;;;;;;57.33;17.52;;;6.40;94.40;;;;;;5015719;28;20224;-72
2021/12/04 07:30:44;;;;;;;14.43;13.82;;;6.40;95.00;;;;;;5019655;28;20292;-72
2021/12/04 07:33:11;;;;;;;38.78;15.98;;;6.50;95.50;;;;;;5029512;28;20210;-72
2021/12/04 07:35:38;;;;;;;14.18;13.57;;;6.50;95.20;;;;;;5017836;28;20220;-72
2021/12/04 07:38:06;;;;;;;15.57;14.77;;;6.60;94.70;;;;;;5019047;28;20273;-72
2021/12/04 07:40:34;;;;;;;14.07;13.48;;;6.60;94.60;;;;;;5025103;28;20569;-72
2021/12/04 07:43:01;;;;;;;14.73;14.02;;;6.70;94.00;;;;;;5033049;28;20216;-72
2021/12/04 07:45:28;;;;;;;14.07;13.38;;;6.80;93.30;;;;;;5029369;28;20194;-71
2021/12/04 07:47:55;;;;;;;274.63;40.83;;;6.80;93.50;;;;;;5029224;28;20200;-72
2021/12/04 07:50:22;;;;;;;14.88;14.18;;;6.70;93.70;;;;;;5027055;28;20202;-72
2021/12/04 07:52:50;;;;;;;89.50;22.90;;;6.80;93.90;;;;;;5024120;28;20555;-73
2021/12/04 07:55:18;;;;;;;14.18;13.48;;;6.80;94.80;;;;;;5028873;28;20278;-70
2021/12/04 07:57:45;;;;;;;13.15;12.55;;;6.90;94.30;;;;;;5030330;28;20194;-72
2021/12/04 08:00:15;;;;;;;16.30;13.65;;;6.90;94.10;;;;;;5020332;28;20202;-72
2021/12/04 08:02:42;;;;;;;14.20;13.40;;;6.80;94.60;;;;;;5023137;28;20214;-72
2021/12/04 08:05:09;;;;;;;14.60;13.82;;;6.90;94.50;;;;;;5042791;28;20193;-72
2021/12/04 08:07:36;;;;;;;13.90;13.30;;;6.80;94.80;;;;;;5033470;28;20198;-72
2021/12/04 08:10:04;;;;;;;14.05;13.45;;;6.80;94.70;;;;;;5033314;28;20202;-72
2021/12/04 08:12:32;;;;;;;15.32;14.43;;;6.90;94.70;;;;;;5016457;28;20198;-72
2021/12/04 08:14:59;;;;;;;14.63;13.93;;;7.00;94.20;;;;;;5013649;28;20300;-72
2021/12/04 08:17:26;;;;;;;15.05;14.43;;;6.90;94.30;;;;;;5013541;28;20198;-72
2021/12/04 08:19:53;;;;;;;13.45;12.85;;;7.10;94.20;;;;;;5013782;28;20197;-72
2021/12/04 08:22:20;;;;;;;14.55;13.75;;;7.20;93.80;;;;;;5013342;28;20388;-72
2021/12/04 08:24:47;;;;;;;14.10;13.40;;;7.20;94.30;;;;;;5013572;28;20222;-71
2021/12/04 08:27:14;;;;;;;173.93;27.73;;;7.30;94.30;;;;;;5013701;28;20328;-72
2021/12/04 08:29:43;;;;;;;13.75;13.15;;;7.40;94.40;;;;;;5013810;28;20622;-72
2021/12/04 08:32:11;;;;;;;14.57;13.85;;;7.40;94.00;;;;;;5013642;28;20658;-72
2021/12/04 08:34:38;;;;;;;13.80;13.20;;;7.40;93.90;;;;;;5013391;28;20313;-72
2021/12/04 08:37:06;;;;;;;14.20;13.60;;;7.50;93.50;;;;;;5013160;28;20202;-72
2021/12/04 08:39:33;;;;;;;14.32;13.70;;;7.60;93.10;;;;;;5013464;28;20579;-72
2021/12/04 08:42:00;;;;;;;15.27;14.13;;;7.60;92.70;;;;;;5013207;28;20228;-72
2021/12/04 08:44:29;;;;;;;14.70;14.00;;;7.70;92.20;;;;;;5013131;28;20232;-72
2021/12/04 08:46:57;;;;;;;15.00;14.20;;;7.80;92.10;;;;;;5013269;28;20333;-72
2021/12/04 08:49:25;;;;;;;13.82;13.23;;;7.80;92.10;;;;;;5013212;28;20288;-72
2021/12/04 08:51:52;;;;;;;14.30;13.52;;;7.80;92.00;;;;;;5013497;28;20201;-72
2021/12/04 08:54:19;;;;;;;14.70;14.10;;;7.90;92.00;;;;;;5013066;28;20213;-72
2021/12/04 08:56:46;;;;;;;14.25;13.45;;;7.90;92.00;;;;;;5013124;28;20668;-72
2021/12/04 08:59:13;;;;;;;13.98;13.27;;;7.90;91.90;;;;;;5013164;28;20197;-72
2021/12/04 09:01:43;;;;;;;13.88;13.27;;;7.90;92.20;;;;;;5013113;28;20194;-72
2021/12/04 09:04:18;;;;;;;13.90;13.30;;;8.00;92.20;;;;;;5012752;28;20224;-72
2021/12/04 09:06:46;;;;;;;14.38;13.68;;;8.10;92.40;;;;;;5013182;28;20297;-72
2021/12/04 09:09:16;;;;;;;14.00;13.30;;;8.20;91.50;;;;;;5013121;28;20198;-72
2021/12/04 09:11:50;;;;;;;13.20;12.70;;;8.20;91.40;;;;;;5012957;28;20690;-72
2021/12/04 09:14:19;;;;;;;13.73;13.10;;;8.20;91.00;;;;;;5012749;28;20228;-72
2021/12/04 09:16:46;;;;;;;14.10;13.50;;;8.20;91.30;;;;;;5013037;28;20205;-72
2021/12/04 09:19:14;;;;;;;14.15;13.52;;;8.30;91.50;;;;;;5012842;28;20659;-71
2021/12/04 09:21:41;;;;;;;13.82;13.23;;;8.40;91.00;;;;;;5012560;28;20198;-71
2021/12/04 09:24:11;;;;;;;13.60;13.00;;;8.40;90.80;;;;;;5012498;28;20300;-71
2021/12/04 09:26:45;;;;;;;13.70;13.10;;;8.50;90.90;;;;;;5012805;28;20285;-71
2021/12/04 09:29:27;;;;;;;14.20;13.60;;;8.50;91.20;;;;;;5012851;28;20209;-71
2021/12/04 09:32:22;;;;;;;14.27;13.57;;;8.60;90.90;;;;;;5012929;28;20202;-71
2021/12/04 09:35:06;;;;;;;13.05;12.45;;;8.60;91.00;;;;;;5012463;28;20221;-71
2021/12/04 09:59:08;;;;;;;15.18;14.38;;;8.70;90.70;;;;;;5012842;28;20201;-71
2021/12/04 10:02:35;;;;;;;14.60;13.90;;;9.00;90.90;;;;;;5016355;28;20679;-72
2021/12/04 10:05:45;;;;;;;14.65;13.85;;;9.00;90.90;;;;;;5016337;28;20205;-72
2021/12/04 10:11:26;;;;;;;16.77;15.57;;;9.10;90.80;;;;;;5016313;28;20289;-72
2021/12/04 10:14:16;;;;;;;15.85;15.10;;;9.30;90.70;;;;;;5015848;28;20970;-72
2021/12/04 10:22:34;;;;;;;15.30;14.50;;;9.70;90.50;;;;;;4973846;28;20478;-72
2021/12/04 10:32:02;;;;;;;13.83;13.23;;;9.80;89.80;;;;;;4999258;28;20221;-72
2021/12/04 10:33:49;;;;;;;16.23;15.43;;;10.10;89.10;;;;;;5015419;28;20510;-72
2021/12/04 10:36:28;;;;;;;14.80;14.10;;;10.20;89.10;;;;;;5015405;28;20461;-72
2021/12/04 10:38:55;;;;;;;14.60;14.00;;;10.20;89.30;;;;;;5015919;28;20811;-72
2021/12/04 10:41:31;;;;;;;15.13;14.40;;;10.30;88.90;;;;;;5015455;28;20467;-72
2021/12/04 10:44:10;;;;;;;14.40;13.80;;;10.40;88.60;;;;;;5015307;28;20491;-72
2021/12/04 10:46:37;;;;;;;16.27;14.93;;;10.50;88.40;;;;;;5015697;28;20452;-72
2021/12/04 10:49:09;;;;;;;14.30;13.70;;;10.60;88.40;;;;;;5015486;28;20457;-72
2021/12/04 10:51:47;;;;;;;15.03;14.33;;;10.60;88.40;;;;;;5015476;28;20488;-72
2021/12/04 10:54:19;;;;;;;14.80;14.10;;;10.70;88.40;;;;;;5015199;28;20474;-72
2021/12/04 10:57:02;;;;;;;15.30;14.60;;;10.70;88.00;;;;;;5015555;28;20978;-72
2021/12/04 10:59:39;;;;;;;15.03;14.20;;;10.70;88.20;;;;;;5015373;28;20957;-72
2021/12/04 11:02:14;;;;;;;15.50;14.80;;;10.80;88.80;;;;;;5015169;28;20464;-72
2021/12/04 11:04:45;;;;;;;19.50;18.20;;;10.80;88.40;;;;;;5015019;28;20483;-72
2021/12/04 11:18:53;;;;;;;15.60;14.80;;;11.40;86.50;;;;;;5015014;28;20448;-72
2021/12/04 11:27:33;;;;;;;16.27;15.40;;;11.40;86.50;;;;;;4973718;28;20446;-72
2021/12/04 11:38:21;;;;;;;15.17;14.47;;;11.40;86.10;;;;;;5014981;28;20838;-72
2021/12/04 11:41:11;;;;;;;15.13;14.43;;;11.50;86.30;;;;;;5014502;28;20457;-72
2021/12/04 11:43:52;;;;;;;14.03;13.43;;;11.40;86.10;;;;;;5014342;28;20562;-72
2021/12/04 11:46:23;;;;;;;15.50;14.80;;;11.30;86.30;;;;;;5014434;28;20551;-72
2021/12/04 11:48:50;;;;;;;15.57;14.77;;;11.30;86.20;;;;;;5014503;28;20461;-72
2021/12/04 11:51:19;;;;;;;15.60;14.90;;;11.20;86.60;;;;;;5014411;28;20456;-72
2021/12/04 11:53:46;;;;;;;15.90;15.10;;;11.20;86.90;;;;;;5014119;28;20476;-73
2021/12/04 11:56:19;;;;;;;16.60;15.80;;;11.20;87.10;;;;;;5014373;28;20551;-72
2021/12/04 11:58:48;;;;;;;16.70;15.90;;;11.30;86.90;;;;;;5014235;28;20453;-72
2021/12/04 12:01:30;;;;;;;17.47;16.53;;;11.30;86.10;;;;;;5014235;28;20453;-72
2021/12/04 12:04:00;;;;;;;15.93;15.23;;;11.30;86.20;;;;;;5013862;28;20481;-72
2021/12/04 12:06:37;;;;;;;15.30;14.60;;;11.40;86.00;;;;;;5014067;28;20455;-72
2021/12/04 12:09:08;;;;;;;15.37;14.67;;;11.40;86.10;;;;;;5013966;28;20527;-72
2021/12/04 12:11:36;;;;;;;17.10;16.30;;;11.50;85.20;;;;;;5013974;28;20459;-72
2021/12/04 12:14:07;;;;;;;16.23;15.53;;;11.50;85.20;;;;;;5013822;28;20472;-72
2021/12/04 12:16:40;;;;;;;15.53;14.87;;;11.50;85.10;;;;;;5014023;28;20788;-72
2021/12/04 12:19:12;;;;;;;16.17;15.47;;;11.60;85.10;;;;;;5013869;28;20597;-72
2021/12/04 12:21:48;;;;;;;17.50;16.70;;;11.60;84.90;;;;;;5013376;28;20465;-72
2021/12/04 12:33:00;;;;;;;18.13;17.10;;;11.70;85.60;;;;;;4972257;28;20509;-73
2021/12/04 12:38:17;;;;;;;15.97;15.17;;;11.60;85.90;;;;;;4999398;28;20995;-72
2021/12/04 12:40:57;;;;;;;16.33;15.63;;;11.50;86.10;;;;;;5013381;28;20484;-72
2021/12/04 12:43:24;;;;;;;15.70;15.00;;;11.50;86.20;;;;;;5013128;28;20492;-73
2021/12/04 12:45:56;;;;;;;15.90;15.10;;;11.40;86.20;;;;;;5013470;28;20452;-73
2021/12/04 12:48:25;;;;;;;14.93;14.23;;;11.50;86.30;;;;;;5013458;28;20453;-73
2021/12/04 12:50:53;;;;;;;15.00;14.40;;;11.50;86.80;;;;;;5013304;28;20531;-73
2021/12/04 12:53:25;;;;;;;15.50;14.77;;;11.50;86.70;;;;;;5012939;28;20484;-72
2021/12/04 12:56:03;;;;;;;16.33;15.53;;;11.50;86.70;;;;;;5013295;28;20541;-72
2021/12/04 12:58:38;;;;;;;16.60;15.70;;;11.50;86.80;;;;;;5013251;28;20444;-72
2021/12/04 13:12:23;;;;;;;16.17;15.37;;;11.30;87.40;;;;;;5012987;28;20486;-72
2021/12/04 13:14:53;;;;;;;15.63;14.73;;;11.20;87.50;;;;;;5012750;28;20998;-72
2021/12/04 13:17:22;;;;;;;15.60;14.90;;;11.20;87.70;;;;;;5012811;28;20453;-73
2021/12/04 13:19:54;;;;;;;14.67;13.97;;;11.20;87.80;;;;;;5012803;28;20548;-72
2021/12/04 13:22:23;;;;;;;15.83;15.00;;;11.10;88.00;;;;;;5012849;28;20970;-72
2021/12/04 13:24:54;;;;;;;15.23;14.53;;;11.20;87.90;;;;;;5012598;28;20477;-73
2021/12/04 13:29:51;;;;;;;15.27;14.57;;;11.00;88.20;;;;;;5012895;28;20973;-72
2021/12/04 13:32:28;;;;;;;16.17;15.37;;;11.00;88.20;;;;;;5012445;28;20457;-72
2021/12/04 13:35:02;;;;;;;15.40;14.70;;;11.10;87.90;;;;;;5012314;28;20498;-72
2021/12/04 13:37:30;;;;;;;15.70;14.80;;;11.10;87.90;;;;;;5012342;28;20469;-73
2021/12/04 13:40:04;;;;;;;15.10;14.20;;;11.10;88.30;;;;;;5012581;28;21037;-72
2021/12/04 13:42:32;;;;;;;15.20;14.50;;;11.10;88.30;;;;;;5012192;28;20483;-72
2021/12/04 13:44:59;;;;;;;15.37;14.67;;;11.00;88.40;;;;;;5012578;28;20532;-72
2021/12/04 13:47:28;;;;;;;16.70;15.90;;;11.00;88.50;;;;;;5012613;28;20890;-72
2021/12/04 13:50:00;;;;;;;14.80;14.00;;;10.90;88.60;;;;;;5012642;28;20452;-72
2021/12/04 13:52:31;;;;;;;15.40;14.70;;;10.90;88.70;;;;;;5012682;28;20457;-73
2021/12/04 13:55:03;;;;;;;15.63;14.93;;;10.90;89.30;;;;;;5012407;28;20488;-72
2021/12/04 13:57:30;;;;;;;16.10;15.30;;;10.90;89.10;;;;;;5012356;28;20958;-72
2021/12/04 13:59:58;;;;;;;14.80;14.10;;;10.90;89.00;;;;;;5012446;28;20544;-72
2021/12/04 14:02:28;;;;;;;15.17;14.50;;;10.90;88.90;;;;;;5012393;28;20453;-73
2021/12/04 14:04:58;;;;;;;14.87;14.07;;;10.90;89.20;;;;;;5012240;28;21021;-72
2021/12/04 14:07:25;;;;;;;16.20;15.40;;;10.80;89.80;;;;;;5012513;28;20459;-73
2021/12/04 14:09:52;;;;;;;15.20;14.50;;;10.60;90.40;;;;;;5012428;28;20541;-72
2021/12/04 14:12:19;;;;;;;15.50;14.60;;;10.60;91.10;;;;;;5012306;28;21042;-72
2021/12/04 14:14:46;;;;;;;15.30;14.47;;;10.60;91.40;;;;;;5012068;28;20472;-73
2021/12/04 14:17:15;;;;;;;14.80;14.10;;;10.60;91.60;;;;;;5012415;28;20453;-73
2021/12/04 14:19:44;;;;;;;16.10;15.20;;;10.60;91.70;;;;;;5012255;28;20457;-72
2021/12/04 14:22:14;;;;;;;15.07;14.37;;;10.50;91.70;;;;;;5012401;28;20806;-72
2021/12/04 14:24:45;;;;;;;19.37;18.13;;;10.50;91.80;;;;;;5011950;28;20487;-72
2021/12/04 14:27:15;;;;;;;14.70;14.00;;;10.50;92.40;;;;;;5012304;28;20484;-72
2021/12/04 14:29:46;;;;;;;13.97;13.37;;;10.50;92.30;;;;;;5012208;28;20455;-72
2021/12/04 14:32:16;;;;;;;13.53;12.77;;;10.50;92.10;;;;;;5012433;28;20555;-73
2021/12/04 14:34:43;;;;;;;14.00;13.30;;;10.50;92.10;;;;;;5011977;28;20469;-73
2021/12/04 14:37:14;;;;;;;15.37;14.57;;;10.50;92.10;;;;;;5011710;28;20475;-72
2021/12/04 14:39:41;;;;;;;14.63;13.97;;;10.50;92.10;;;;;;5012134;28;20818;-72
2021/12/04 14:42:14;;;;;;;14.80;14.00;;;10.40;92.30;;;;;;5011880;28;20532;-72
2021/12/04 14:44:42;;;;;;;15.53;14.40;;;10.30;92.20;;;;;;5013088;28;20484;-72
2021/12/04 14:47:09;;;;;;;14.80;13.90;;;10.40;92.20;;;;;;5015664;28;20456;-72
2021/12/04 14:49:40;;;;;;;14.47;13.83;;;10.30;92.50;;;;;;5015699;28;20544;-72
2021/12/04 14:52:07;;;;;;;15.50;14.80;;;10.20;92.70;;;;;;5015427;28;20456;-72
2021/12/04 14:54:38;;;;;;;14.00;13.33;;;10.30;92.70;;;;;;5015166;28;20580;-72
2021/12/04 14:57:14;;;;;;;15.33;14.53;;;10.30;92.40;;;;;;5015555;28;20855;-72